UKV630 EGKK-LGSK
Flight info
| Callsign | UKV630 |
|---|---|
| Flight time | N/A |
| Altitude | 37000 |
| Route | MIMFO Y312 DVR UL9 KONAN UL607 REMBA DCT LIRSU DCT ULNOK DCT VIBOM DCT NOMBO DCT RIDAR DCT RADIZ DCT NEMEK DCT ETOBI DCT MEDUX UM867 KOGAT DCT ERANA UL737 TSL UL617 IBIDI |
| Aircraft | A320/M-SDE3FGHIRWY/LB1 |
Departure
| Time | 2026-04-15 08:00 |
|---|---|
| Airport | London Gatwick Airport (EGKK) |
Arrival
| Time | N/A |
|---|---|
| Airport | Skiathos Island National Airport (LGSK) |
| Time | Latitude | Longitude | Altitude | Speed | Heading |
|---|---|---|---|---|---|
| 2026-04-15 07:30 | 51.15583 | -0.17685 | 213 ft | 0 kts | 347° |
| 2026-04-15 07:50 | 51.15580 | -0.17684 | 205 ft | 2 kts | 348° |
| 2026-04-15 07:50 | 51.15561 | -0.17679 | 216 ft | 3 kts | 355° |
| 2026-04-15 07:50 | 51.15541 | -0.17678 | 214 ft | 3 kts | 9° |
| 2026-04-15 07:50 | 51.15523 | -0.17687 | 214 ft | 3 kts | 37° |
| 2026-04-15 07:51 | 51.15513 | -0.17705 | 215 ft | 2 kts | 76° |
| 2026-04-15 07:51 | 51.15511 | -0.17715 | 214 ft | 0 kts | 77° |
| 2026-04-15 07:55 | 51.15512 | -0.17710 | 214 ft | 1 kts | 77° |
| 2026-04-15 07:55 | 51.15514 | -0.17697 | 211 ft | 1 kts | 77° |
| 2026-04-15 07:55 | 51.15532 | -0.17567 | 211 ft | 10 kts | 79° |
| 2026-04-15 07:56 | 51.15535 | -0.17466 | 205 ft | 8 kts | 110° |
| 2026-04-15 07:56 | 51.15493 | -0.17428 | 206 ft | 7 kts | 158° |
| 2026-04-15 07:56 | 51.15449 | -0.17405 | 213 ft | 7 kts | 165° |
| 2026-04-15 07:56 | 51.15390 | -0.17391 | 205 ft | 11 kts | 168° |
| 2026-04-15 07:57 | 51.15315 | -0.17348 | 215 ft | 10 kts | 129° |
| 2026-04-15 07:57 | 51.15320 | -0.17236 | 212 ft | 10 kts | 77° |
| 2026-04-15 07:57 | 51.15334 | -0.17139 | 211 ft | 8 kts | 77° |
| 2026-04-15 07:57 | 51.15345 | -0.17056 | 216 ft | 7 kts | 78° |
| 2026-04-15 07:58 | 51.15355 | -0.16979 | 205 ft | 9 kts | 78° |
| 2026-04-15 07:58 | 51.15367 | -0.16861 | 205 ft | 12 kts | 97° |
| 2026-04-15 07:58 | 51.15325 | -0.16809 | 205 ft | 7 kts | 183° |
| 2026-04-15 07:58 | 51.15262 | -0.16821 | 210 ft | 11 kts | 175° |
| 2026-04-15 07:59 | 51.15179 | -0.16794 | 206 ft | 13 kts | 166° |
| 2026-04-15 07:59 | 51.15113 | -0.16872 | 212 ft | 14 kts | 258° |
| 2026-04-15 07:59 | 51.15111 | -0.16883 | 213 ft | 1 kts | 257° |
| 2026-04-15 07:59 | 51.15067 | -0.17178 | 212 ft | 65 kts | 257° |
| 2026-04-15 08:00 | 51.14918 | -0.18227 | 208 ft | 127 kts | 257° |
| 2026-04-15 08:00 | 51.14656 | -0.19834 | 328 ft | 163 kts | 252° |
| 2026-04-15 08:00 | 51.14388 | -0.21546 | 1060 ft | 158 kts | 253° |
| 2026-04-15 08:00 | 51.14170 | -0.23255 | 1811 ft | 157 kts | 253° |
| 2026-04-15 08:01 | 51.13950 | -0.25012 | 2306 ft | 171 kts | 253° |
| 2026-04-15 08:01 | 51.13699 | -0.26997 | 2638 ft | 196 kts | 258° |
| 2026-04-15 08:01 | 51.13852 | -0.29284 | 3104 ft | 223 kts | 288° |
| 2026-04-15 08:01 | 51.14814 | -0.31310 | 3767 ft | 241 kts | 319° |
| 2026-04-15 08:02 | 51.16387 | -0.32270 | 3964 ft | 248 kts | 356° |
| 2026-04-15 08:02 | 51.18040 | -0.31609 | 3997 ft | 250 kts | 34° |
| 2026-04-15 08:02 | 51.19179 | -0.29551 | 4003 ft | 249 kts | 72° |
| 2026-04-15 08:02 | 51.19575 | -0.26912 | 4009 ft | 245 kts | 84° |
| 2026-04-15 08:03 | 51.19883 | -0.24227 | 4009 ft | 247 kts | 84° |
| 2026-04-15 08:03 | 51.20198 | -0.21535 | 4010 ft | 247 kts | 83° |
| 2026-04-15 08:03 | 51.20530 | -0.18765 | 4018 ft | 268 kts | 83° |
| 2026-04-15 08:03 | 51.20902 | -0.15786 | 4008 ft | 277 kts | 82° |
| 2026-04-15 08:04 | 51.21302 | -0.12720 | 4379 ft | 287 kts | 81° |
| 2026-04-15 08:04 | 51.21718 | -0.09603 | 4905 ft | 287 kts | 81° |
| 2026-04-15 08:04 | 51.22132 | -0.06516 | 4991 ft | 284 kts | 81° |
| 2026-04-15 08:04 | 51.22545 | -0.03431 | 5012 ft | 283 kts | 81° |
| 2026-04-15 08:05 | 51.22951 | -0.00357 | 5005 ft | 283 kts | 81° |
| 2026-04-15 08:05 | 51.23355 | 0.02723 | 4880 ft | 285 kts | 81° |
| 2026-04-15 08:05 | 51.23760 | 0.05823 | 4859 ft | 285 kts | 81° |
| 2026-04-15 08:05 | 51.24162 | 0.08922 | 4836 ft | 285 kts | 81° |
| 2026-04-15 08:06 | 51.24554 | 0.11986 | 4809 ft | 285 kts | 81° |
| 2026-04-15 08:06 | 51.24948 | 0.15078 | 4786 ft | 285 kts | 81° |
| 2026-04-15 08:06 | 51.25337 | 0.18179 | 4764 ft | 285 kts | 84° |
| 2026-04-15 08:06 | 51.25405 | 0.21310 | 4798 ft | 284 kts | 100° |
| 2026-04-15 08:07 | 51.25141 | 0.24470 | 5494 ft | 288 kts | 101° |
| 2026-04-15 08:07 | 51.24896 | 0.27616 | 5653 ft | 284 kts | 101° |
| 2026-04-15 08:07 | 51.24665 | 0.30742 | 5665 ft | 283 kts | 101° |
| 2026-04-15 08:07 | 51.24438 | 0.33863 | 5654 ft | 283 kts | 101° |
| 2026-04-15 08:08 | 51.24209 | 0.36984 | 5651 ft | 283 kts | 101° |
| 2026-04-15 08:08 | 51.23976 | 0.40097 | 5652 ft | 283 kts | 101° |
| 2026-04-15 08:08 | 51.23740 | 0.43209 | 5654 ft | 283 kts | 101° |
| 2026-04-15 08:08 | 51.23500 | 0.46317 | 5653 ft | 282 kts | 101° |
| 2026-04-15 08:09 | 51.23262 | 0.49419 | 5645 ft | 280 kts | 101° |
| 2026-04-15 08:09 | 51.23021 | 0.52545 | 6123 ft | 286 kts | 101° |
| 2026-04-15 08:09 | 51.22779 | 0.55680 | 7116 ft | 285 kts | 101° |
| 2026-04-15 08:09 | 51.22534 | 0.58832 | 8033 ft | 288 kts | 102° |
| 2026-04-15 08:10 | 51.22282 | 0.62030 | 8915 ft | 292 kts | 102° |
| 2026-04-15 08:10 | 51.22026 | 0.65267 | 9782 ft | 296 kts | 102° |
| 2026-04-15 08:10 | 51.21784 | 0.68329 | 10252 ft | 313 kts | 101° |
| 2026-04-15 08:10 | 51.21510 | 0.71894 | 10538 ft | 336 kts | 101° |
| 2026-04-15 08:11 | 51.21206 | 0.75723 | 10795 ft | 359 kts | 101° |
| 2026-04-15 08:11 | 51.20879 | 0.79758 | 11240 ft | 373 kts | 101° |